Time,TemperatureF,DewpointF,PressureIn,WindDirection,WindDirectionDegrees,WindSpeedMPH,WindSpeedGustMPH,Humidity,HourlyPrecipIn,Conditions,Clouds,dailyrainin,SoftwareType,DateUTC
2013-11-05 00:00:00,38.0,34.8,30.56,North,0,0.0,0.0,88,0.00,,SKC,0.00,VWS V14.01,2013-11-05 05:00:00,
2013-11-05 00:56:00,38.1,35.2,30.54,ENE,68,0.0,0.0,89,0.00,,SKC,0.00,VWS V14.01,2013-11-05 05:56:00,
2013-11-05 01:00:00,38.1,35.2,30.54,ENE,68,0.0,1.0,89,0.00,,SKC,0.00,VWS V14.01,2013-11-05 06:00:00,
2013-11-05 01:06:00,38.3,35.3,30.54,NNE,24,0.0,1.0,89,0.00,,SKC,0.00,VWS V14.01,2013-11-05 06:06:00,
2013-11-05 01:08:00,38.3,35.1,30.53,NNE,20,0.0,2.0,88,0.00,,SKC,0.00,VWS V14.01,2013-11-05 06:08:00,
2013-11-05 01:16:00,38.6,35.4,30.53,NNW,335,0.0,2.0,88,0.00,,SKC,0.00,VWS V14.01,2013-11-05 06:16:00,
2013-11-05 01:20:00,38.7,35.5,30.53,North,11,0.0,2.0,88,0.00,,SKC,0.00,VWS V14.01,2013-11-05 06:20:00,
2013-11-05 01:24:00,38.8,35.6,30.53,North,11,0.0,2.0,88,0.00,,SKC,0.00,VWS V14.01,2013-11-05 06:24:00,
2013-11-05 01:32:00,39.1,35.8,30.53,North,10,0.0,3.0,88,0.00,,SKC,0.00,VWS V14.01,2013-11-05 06:32:00,
2013-11-05 01:36:00,39.2,36.0,30.53,North,10,0.0,3.0,88,0.00,,SKC,0.00,VWS V14.01,2013-11-05 06:36:00,
2013-11-05 01:40:00,39.3,35.8,30.53,North,10,0.0,1.0,87,0.00,,SKC,0.00,VWS V14.01,2013-11-05 06:40:00,
2013-11-05 01:48:00,39.5,36.0,30.53,North,10,0.0,1.0,87,0.00,,SKC,0.00,VWS V14.01,2013-11-05 06:48:00,
2013-11-05 01:52:00,39.6,36.1,30.53,North,10,0.0,1.0,87,0.00,,SKC,0.00,VWS V14.01,2013-11-05 06:52:00,
2013-11-05 01:56:00,39.7,36.2,30.53,North,10,0.0,1.0,87,0.00,,SKC,0.00,VWS V14.01,2013-11-05 06:56:00,
2013-11-05 02:00:00,39.7,36.2,30.53,North,10,0.0,1.0,87,0.00,,SKC,0.00,VWS V14.01,2013-11-05 07:00:00,
2013-11-05 02:04:00,39.8,36.2,30.53,North,10,0.0,1.0,87,0.00,,SKC,0.00,VWS V14.01,2013-11-05 07:04:00,
2013-11-05 02:06:00,39.8,36.2,30.53,North,10,0.0,1.0,87,0.00,,SKC,0.00,VWS V14.01,2013-11-05 07:06:00,
2013-11-05 02:08:00,39.8,36.2,30.53,North,10,0.0,0.0,87,0.00,,SKC,0.00,VWS V14.01,2013-11-05 07:08:00,
2013-11-05 02:12:00,39.9,36.3,30.53,North,10,0.0,0.0,87,0.00,,SKC,0.00,VWS V14.01,2013-11-05 07:12:00,
2013-11-05 02:16:00,39.9,36.3,30.54,North,10,0.0,0.0,87,0.00,,SKC,0.00,VWS V14.01,2013-11-05 07:16:00,
2013-11-05 02:20:00,40.0,36.5,30.54,North,10,0.0,0.0,87,0.00,,SKC,0.00,VWS V14.01,2013-11-05 07:20:00,
2013-11-05 02:24:00,40.0,36.7,30.54,North,10,0.0,0.0,88,0.00,,SKC,0.00,VWS V14.01,2013-11-05 07:24:00,
2013-11-05 02:28:00,40.0,36.7,30.54,North,10,0.0,0.0,88,0.00,,SKC,0.00,VWS V14.01,2013-11-05 07:28:00,
2013-11-05 02:32:00,39.9,36.6,30.54,North,10,0.0,0.0,88,0.00,,SKC,0.00,VWS V14.01,2013-11-05 07:32:00,
2013-11-05 02:36:00,39.9,36.6,30.53,North,10,0.0,0.0,88,0.00,,SKC,0.00,VWS V14.01,2013-11-05 07:36:00,
2013-11-05 02:44:00,39.9,36.9,30.53,North,10,0.0,0.0,89,0.00,,SKC,0.00,VWS V14.01,2013-11-05 07:44:00,
2013-11-05 02:48:00,39.9,36.6,30.52,North,10,0.0,0.0,88,0.00,,SKC,0.00,VWS V14.01,2013-11-05 07:48:00,
2013-11-05 02:52:00,40.0,36.7,30.53,North,10,0.0,0.0,88,0.00,,SKC,0.00,VWS V14.01,2013-11-05 07:52:00,
2013-11-05 02:56:00,40.0,36.7,30.52,North,10,0.0,0.0,88,0.00,,SKC,0.00,VWS V14.01,2013-11-05 07:56:00,
2013-11-05 03:00:00,40.1,36.8,30.52,North,10,0.0,0.0,88,0.00,,SKC,0.00,VWS V14.01,2013-11-05 08:00:00,
2013-11-05 03:04:00,40.2,36.9,30.52,North,10,0.0,1.0,88,0.00,,SKC,0.00,VWS V14.01,2013-11-05 08:04:00,
2013-11-05 03:06:00,40.2,36.9,30.52,North,10,0.0,1.0,88,0.00,,SKC,0.00,VWS V14.01,2013-11-05 08:06:00,
2013-11-05 03:12:00,40.3,37.0,30.52,North,10,0.0,0.0,88,0.00,,SKC,0.00,VWS V14.01,2013-11-05 08:12:00,
2013-11-05 03:16:00,40.3,36.8,30.52,NNE,17,0.0,3.0,87,0.00,,SKC,0.00,VWS V14.01,2013-11-05 08:16:00,
2013-11-05 03:24:00,40.4,36.8,30.52,NNE,17,0.0,3.0,87,0.00,,SKC,0.00,VWS V14.01,2013-11-05 08:24:00,
2013-11-05 03:28:00,40.5,36.9,30.52,NNE,17,0.0,3.0,87,0.00,,SKC,0.00,VWS V14.01,2013-11-05 08:28:00,
2013-11-05 03:32:00,40.5,36.9,30.52,NNE,17,0.0,3.0,87,0.00,,SKC,0.00,VWS V14.01,2013-11-05 08:32:00,
2013-11-05 03:36:00,40.6,37.0,30.52,NNE,17,0.0,3.0,87,0.00,,SKC,0.00,VWS V14.01,2013-11-05 08:36:00,
2013-11-05 03:37:00,40.5,36.9,30.52,NNE,17,0.0,0.0,87,0.00,,SKC,0.00,VWS V14.01,2013-11-05 08:37:00,
2013-11-05 03:41:00,40.6,37.0,30.52,NNE,17,0.0,0.0,87,0.00,,SKC,0.00,VWS V14.01,2013-11-05 08:41:00,
2013-11-05 03:45:00,40.6,37.0,30.52,NNE,17,0.0,0.0,87,0.00,,SKC,0.00,VWS V14.01,2013-11-05 08:45:00,
2013-11-05 03:49:00,40.6,37.0,30.52,NNE,17,0.0,0.0,87,0.00,,SKC,0.00,VWS V14.01,2013-11-05 08:49:00,
2013-11-05 03:53:00,40.6,37.0,30.53,NNE,17,0.0,0.0,87,0.00,,SKC,0.00,VWS V14.01,2013-11-05 08:53:00,
2013-11-05 03:57:00,40.6,37.3,30.53,NNE,17,0.0,0.0,88,0.00,,SKC,0.00,VWS V14.01,2013-11-05 08:57:00,
2013-11-05 04:01:00,40.5,37.2,30.53,NNE,17,0.0,0.0,88,0.00,,SKC,0.00,VWS V14.01,2013-11-05 09:01:00,
2013-11-05 04:05:00,40.5,37.2,30.54,NNE,17,0.0,0.0,88,0.00,,SKC,0.00,VWS V14.01,2013-11-05 09:05:00,
2013-11-05 04:06:00,40.5,37.2,30.54,NNE,17,0.0,0.0,88,0.00,,SKC,0.00,VWS V14.01,2013-11-05 09:06:00,
2013-11-05 04:09:00,40.6,37.3,30.54,NNE,17,0.0,0.0,88,0.00,,SKC,0.00,VWS V14.01,2013-11-05 09:09:00,
2013-11-05 04:17:00,40.6,37.3,30.54,NNE,17,0.0,0.0,88,0.00,,SKC,0.00,VWS V14.01,2013-11-05 09:17:00,
2013-11-05 04:21:00,40.6,37.3,30.54,NNE,17,0.0,0.0,88,0.00,,SKC,0.00,VWS V14.01,2013-11-05 09:21:00,
2013-11-05 04:29:00,40.6,37.3,30.53,NNE,17,0.0,0.0,88,0.00,,SKC,0.00,VWS V14.01,2013-11-05 09:29:00,
2013-11-05 04:33:00,40.5,37.2,30.53,NNE,17,0.0,0.0,88,0.00,,SKC,0.00,VWS V14.01,2013-11-05 09:33:00,
2013-11-05 04:37:00,40.4,37.1,30.53,NNE,17,0.0,0.0,88,0.00,,SKC,0.00,VWS V14.01,2013-11-05 09:37:00,
2013-11-05 04:41:00,40.4,37.1,30.52,NNE,17,0.0,0.0,88,0.00,,SKC,0.00,VWS V14.01,2013-11-05 09:41:00,
2013-11-05 04:45:00,40.4,37.1,30.52,NNE,17,0.0,0.0,88,0.00,,SKC,0.00,VWS V14.01,2013-11-05 09:45:00,
2013-11-05 04:53:00,40.3,37.0,30.52,NNE,17,0.0,0.0,88,0.00,,SKC,0.00,VWS V14.01,2013-11-05 09:53:00,
2013-11-05 04:57:00,40.3,37.0,30.52,NNE,17,0.0,0.0,88,0.00,,SKC,0.00,VWS V14.01,2013-11-05 09:57:00,
2013-11-05 05:05:00,40.4,37.1,30.53,NNE,17,0.0,0.0,88,0.00,,SKC,0.00,VWS V14.01,2013-11-05 10:05:00,
2013-11-05 05:09:00,40.4,37.1,30.53,NNE,17,0.0,0.0,88,0.00,,SKC,0.00,VWS V14.01,2013-11-05 10:09:00,
2013-11-05 05:13:00,40.4,37.1,30.53,NNE,17,0.0,0.0,88,0.00,,SKC,0.00,VWS V14.01,2013-11-05 10:13:00,
2013-11-05 05:17:00,40.4,37.1,30.53,NNE,17,0.0,0.0,88,0.00,,SKC,0.00,VWS V14.01,2013-11-05 10:17:00,
2013-11-05 05:25:00,40.4,37.4,30.53,NNE,17,0.0,0.0,89,0.00,,SKC,0.00,VWS V14.01,2013-11-05 10:25:00,
2013-11-05 05:33:00,40.4,37.4,30.53,NNE,17,0.0,1.0,89,0.00,,SKC,0.00,VWS V14.01,2013-11-05 10:33:00,
2013-11-05 05:36:00,40.3,37.3,30.53,NNE,17,0.0,1.0,89,0.00,,SKC,0.00,VWS V14.01,2013-11-05 10:36:00,
2013-11-05 05:37:00,40.3,37.3,30.53,NNE,17,0.0,0.0,89,0.00,,SKC,0.00,VWS V14.01,2013-11-05 10:37:00,
2013-11-05 05:41:00,40.4,37.4,30.53,NNE,17,0.0,0.0,89,0.00,,SKC,0.00,VWS V14.01,2013-11-05 10:41:00,
2013-11-05 05:45:00,40.3,37.3,30.53,NNE,17,0.0,0.0,89,0.00,,SKC,0.00,VWS V14.01,2013-11-05 10:45:00,
2013-11-05 05:49:00,40.3,37.3,30.53,NNE,17,0.0,0.0,89,0.00,,SKC,0.00,VWS V14.01,2013-11-05 10:49:00,
2013-11-05 05:53:00,40.2,37.2,30.54,NNE,17,0.0,0.0,89,0.00,,SKC,0.00,VWS V14.01,2013-11-05 10:53:00,
2013-11-05 05:57:00,40.2,37.2,30.54,NNE,17,0.0,0.0,89,0.00,,SKC,0.00,VWS V14.01,2013-11-05 10:57:00,
2013-11-05 06:01:00,40.1,37.1,30.54,NNE,17,0.0,0.0,89,0.00,,SKC,0.00,VWS V14.01,2013-11-05 11:01:00,
2013-11-05 06:05:00,40.1,37.1,30.55,NNE,17,0.0,0.0,89,0.00,,SKC,0.00,VWS V14.01,2013-11-05 11:05:00,
2013-11-05 06:09:00,40.0,37.0,30.54,NNE,17,0.0,0.0,89,0.00,,SKC,0.00,VWS V14.01,2013-11-05 11:09:00,
2013-11-05 06:13:00,40.0,37.0,30.55,NNE,17,0.0,0.0,89,0.00,,SKC,0.00,VWS V14.01,2013-11-05 11:13:00,
2013-11-05 06:17:00,40.0,37.0,30.54,NNE,17,0.0,0.0,89,0.00,,SKC,0.00,VWS V14.01,2013-11-05 11:17:00,
2013-11-05 06:21:00,40.0,37.0,30.54,North,355,0.0,4.0,89,0.00,,SKC,0.00,VWS V14.01,2013-11-05 11:21:00,
2013-11-05 06:25:00,39.9,36.9,30.54,North,355,0.0,4.0,89,0.00,,SKC,0.00,VWS V14.01,2013-11-05 11:25:00,
2013-11-05 06:29:00,39.9,36.9,30.54,North,5,0.0,4.0,89,0.00,,SKC,0.00,VWS V14.01,2013-11-05 11:29:00,
2013-11-05 06:33:00,39.8,36.5,30.53,North,355,0.0,4.0,88,0.00,,SKC,0.00,VWS V14.01,2013-11-05 11:33:00,
2013-11-05 06:36:00,39.8,36.5,30.53,North,360,0.0,4.0,88,0.00,,SKC,0.00,VWS V14.01,2013-11-05 11:36:00,
2013-11-05 06:41:00,39.7,36.4,30.54,NNE,32,0.0,4.0,88,0.00,,SKC,0.00,VWS V14.01,2013-11-05 11:41:00,
2013-11-05 06:49:00,39.6,36.6,30.53,NNE,32,0.0,4.0,89,0.00,,SKC,0.00,VWS V14.01,2013-11-05 11:49:00,
2013-11-05 06:53:00,39.7,36.7,30.53,NNE,32,0.0,4.0,89,0.00,,SKC,0.00,VWS V14.01,2013-11-05 11:53:00,
2013-11-05 07:01:00,39.7,36.7,30.54,NNE,32,0.0,4.0,89,0.00,,SKC,0.00,VWS V14.01,2013-11-05 12:01:00,
2013-11-05 07:05:00,39.7,36.7,30.54,NNE,32,0.0,4.0,89,0.00,,SKC,0.00,VWS V14.01,2013-11-05 12:05:00,
2013-11-05 07:06:00,39.7,36.7,30.54,NNE,32,0.0,4.0,89,0.00,,SKC,0.00,VWS V14.01,2013-11-05 12:06:00,
2013-11-05 07:09:00,39.7,36.7,30.55,NNE,32,0.0,0.0,89,0.00,,SKC,0.00,VWS V14.01,2013-11-05 12:09:00,
2013-11-05 07:13:00,39.7,36.7,30.55,NNE,32,0.0,0.0,89,0.00,,SKC,0.00,VWS V14.01,2013-11-05 12:13:00,
2013-11-05 07:17:00,39.8,36.8,30.55,NNE,32,0.0,0.0,89,0.00,,SKC,0.00,VWS V14.01,2013-11-05 12:17:00,
2013-11-05 07:21:00,39.8,36.8,30.55,NNE,32,0.0,0.0,89,0.00,,SKC,0.00,VWS V14.01,2013-11-05 12:21:00,
2013-11-05 07:25:00,39.9,36.9,30.55,NNE,32,0.0,0.0,89,0.00,,SKC,0.00,VWS V14.01,2013-11-05 12:25:00,
2013-11-05 07:29:00,40.0,37.0,30.55,NNE,32,0.0,0.0,89,0.00,,SKC,0.00,VWS V14.01,2013-11-05 12:29:00,
2013-11-05 07:33:00,40.1,37.1,30.55,NNE,32,0.0,0.0,89,0.00,,SKC,0.00,VWS V14.01,2013-11-05 12:33:00,
2013-11-05 07:36:00,40.2,37.2,30.55,NNE,32,0.0,0.0,89,0.00,,SKC,0.00,VWS V14.01,2013-11-05 12:36:00,
2013-11-05 07:37:00,40.2,37.2,30.55,NNE,32,0.0,0.0,89,0.00,,SKC,0.00,VWS V14.01,2013-11-05 12:37:00,
2013-11-05 07:45:00,40.6,37.6,30.55,NNE,32,0.0,0.0,89,0.00,,SKC,0.00,VWS V14.01,2013-11-05 12:45:00,
2013-11-05 07:49:00,40.8,37.8,30.55,NNE,32,0.0,0.0,89,0.00,,SKC,0.00,VWS V14.01,2013-11-05 12:49:00,
2013-11-05 07:53:00,41.0,38.0,30.56,NNE,32,0.0,0.0,89,0.00,,SKC,0.00,VWS V14.01,2013-11-05 12:53:00,
2013-11-05 08:01:00,41.5,38.8,30.56,NNE,32,0.0,0.0,90,0.00,,SKC,0.00,VWS V14.01,2013-11-05 13:01:00,
2013-11-05 08:05:00,41.9,39.2,30.55,NNE,32,0.0,0.0,90,0.00,,SKC,0.00,VWS V14.01,2013-11-05 13:05:00,
2013-11-05 08:06:00,42.0,39.0,30.55,NNE,32,0.0,0.0,89,0.00,,SKC,0.00,VWS V14.01,2013-11-05 13:06:00,
2013-11-05 08:09:00,42.3,39.3,30.55,North,5,0.0,3.0,89,0.00,,SKC,0.00,VWS V14.01,2013-11-05 13:09:00,
2013-11-05 08:13:00,42.8,39.5,30.55,North,5,0.0,3.0,88,0.00,,SKC,0.00,VWS V14.01,2013-11-05 13:13:00,
2013-11-05 08:17:00,43.2,39.6,30.55,North,5,0.0,3.0,87,0.00,,SKC,0.00,VWS V14.01,2013-11-05 13:17:00,
2013-11-05 08:21:00,43.6,39.7,30.55,North,5,0.0,3.0,86,0.00,,SKC,0.00,VWS V14.01,2013-11-05 13:21:00,
2013-11-05 08:25:00,44.0,40.1,30.55,NNE,20,0.0,3.0,86,0.00,,SKC,0.00,VWS V14.01,2013-11-05 13:25:00,
2013-11-05 08:33:00,45.1,41.2,30.56,NNE,20,0.0,3.0,86,0.00,,SKC,0.00,VWS V14.01,2013-11-05 13:33:00,
2013-11-05 08:36:00,45.7,41.5,30.56,NNE,20,0.0,3.0,85,0.00,,SKC,0.00,VWS V14.01,2013-11-05 13:36:00,
2013-11-05 08:37:00,45.9,41.7,30.56,NNE,20,0.0,0.0,85,0.00,,SKC,0.00,VWS V14.01,2013-11-05 13:37:00,
2013-11-05 08:45:00,48.0,42.8,30.56,NNE,20,0.0,1.0,82,0.00,,SKC,0.00,VWS V14.01,2013-11-05 13:45:00,
2013-11-05 08:49:00,49.3,43.7,30.56,NE,36,0.0,3.0,81,0.00,,SKC,0.00,VWS V14.01,2013-11-05 13:49:00,
2013-11-05 08:53:00,50.7,44.1,30.56,NE,36,0.0,3.0,78,0.00,,SKC,0.00,VWS V14.01,2013-11-05 13:53:00,
2013-11-05 08:57:00,52.1,44.8,30.56,NE,36,0.0,3.0,76,0.00,,SKC,0.00,VWS V14.01,2013-11-05 13:57:00,
2013-11-05 09:01:00,53.3,44.9,30.56,NE,36,0.0,3.0,73,0.00,,SKC,0.00,VWS V14.01,2013-11-05 14:01:00,
2013-11-05 09:05:00,54.5,45.3,30.56,NNW,329,0.0,3.0,71,0.00,,SKC,0.00,VWS V14.01,2013-11-05 14:05:00,
2013-11-05 09:06:00,54.8,45.2,30.56,NNW,329,0.0,3.0,70,0.00,,SKC,0.00,VWS V14.01,2013-11-05 14:06:00,
2013-11-05 09:09:00,55.7,45.3,30.56,NE,36,0.0,3.0,68,0.00,,SKC,0.00,VWS V14.01,2013-11-05 14:09:00,
2013-11-05 09:13:00,56.2,45.8,30.56,NE,36,0.0,3.0,68,0.00,,SKC,0.00,VWS V14.01,2013-11-05 14:13:00,
2013-11-05 09:17:00,57.0,46.2,30.56,NNE,29,0.0,3.0,67,0.00,,SKC,0.00,VWS V14.01,2013-11-05 14:17:00,
2013-11-05 09:25:00,58.0,46.3,30.55,North,9,0.0,4.0,65,0.00,,SKC,0.00,VWS V14.01,2013-11-05 14:25:00,
2013-11-05 09:29:00,58.4,46.3,30.55,North,9,0.0,4.0,64,0.00,,SKC,0.00,VWS V14.01,2013-11-05 14:29:00,
2013-11-05 09:33:00,58.3,46.2,30.55,North,9,0.0,4.0,64,0.00,,SKC,0.00,VWS V14.01,2013-11-05 14:33:00,
2013-11-05 09:36:00,58.3,46.6,30.55,North,9,0.0,4.0,65,0.00,,SKC,0.00,VWS V14.01,2013-11-05 14:36:00,
2013-11-05 09:37:00,58.2,46.5,30.55,North,9,0.0,0.0,65,0.00,,SKC,0.00,VWS V14.01,2013-11-05 14:37:00,
2013-11-05 09:46:00,58.1,46.4,30.55,East,86,0.0,1.0,65,0.00,,SKC,0.00,VWS V14.01,2013-11-05 14:46:00,
2013-11-05 09:50:00,58.0,46.7,30.55,NNE,17,0.0,4.0,66,0.00,,SKC,0.00,VWS V14.01,2013-11-05 14:50:00,
2013-11-05 09:54:00,58.1,46.8,30.56,ENE,63,0.0,4.0,66,0.00,,SKC,0.00,VWS V14.01,2013-11-05 14:54:00,
2013-11-05 09:58:00,58.0,46.7,30.55,SE,133,3.0,6.0,66,0.00,,SKC,0.00,VWS V14.01,2013-11-05 14:58:00,
2013-11-05 10:02:00,57.8,46.9,30.55,ESE,109,0.0,6.0,67,0.00,,SKC,0.00,VWS V14.01,2013-11-05 15:02:00,
2013-11-05 10:06:00,58.0,47.1,30.55,ESE,119,2.0,6.0,67,0.00,,SKC,0.00,VWS V14.01,2013-11-05 15:06:00,
2013-11-05 10:10:00,57.9,46.6,30.55,ENE,76,1.0,8.0,66,0.00,,SKC,0.00,VWS V14.01,2013-11-05 15:10:00,
2013-11-05 10:18:00,57.5,47.4,30.55,ENE,65,0.0,8.0,69,0.00,,SKC,0.00,VWS V14.01,2013-11-05 15:18:00,
2013-11-05 10:22:00,57.6,47.1,30.54,ESE,103,0.0,8.0,68,0.00,,SKC,0.00,VWS V14.01,2013-11-05 15:22:00,
2013-11-05 10:26:00,57.7,46.8,30.54,ENE,65,1.0,8.0,67,0.00,,SKC,0.00,VWS V14.01,2013-11-05 15:26:00,
2013-11-05 10:30:00,57.8,46.9,30.54,East,88,3.0,9.0,67,0.00,,SKC,0.00,VWS V14.01,2013-11-05 15:30:00,
2013-11-05 10:34:00,57.9,47.4,30.54,East,85,2.0,9.0,68,0.00,,SKC,0.00,VWS V14.01,2013-11-05 15:34:00,
2013-11-05 10:38:00,57.8,46.9,30.55,East,85,2.0,2.0,67,0.00,,SKC,0.00,VWS V14.01,2013-11-05 15:38:00,
2013-11-05 10:42:00,57.5,46.6,30.55,East,82,0.0,8.0,67,0.00,,SKC,0.00,VWS V14.01,2013-11-05 15:42:00,
2013-11-05 10:46:00,57.4,46.9,30.54,East,86,0.0,8.0,68,0.00,,SKC,0.00,VWS V14.01,2013-11-05 15:46:00,
2013-11-05 10:50:00,57.6,47.1,30.54,ENE,69,0.0,8.0,68,0.00,,SKC,0.00,VWS V14.01,2013-11-05 15:50:00,
2013-11-05 10:58:00,57.7,47.2,30.54,East,94,6.0,8.0,68,0.00,,SKC,0.00,VWS V14.01,2013-11-05 15:58:00,
2013-11-05 11:02:00,57.5,47.4,30.54,East,87,1.0,8.0,69,0.00,,SKC,0.00,VWS V14.01,2013-11-05 16:02:00,
2013-11-05 11:06:00,57.6,47.5,30.54,East,84,0.0,8.0,69,0.00,,SKC,0.00,VWS V14.01,2013-11-05 16:06:00,
2013-11-05 11:10:00,57.8,47.3,30.53,East,96,3.0,10.0,68,0.00,,SKC,0.00,VWS V14.01,2013-11-05 16:10:00,
2013-11-05 11:14:00,57.8,47.7,30.53,East,99,1.0,10.0,69,0.00,,SKC,0.00,VWS V14.01,2013-11-05 16:14:00,
2013-11-05 11:22:00,59.5,48.5,30.53,East,80,7.0,10.0,67,0.00,,SKC,0.00,VWS V14.01,2013-11-05 16:22:00,
2013-11-05 11:26:00,60.0,48.6,30.53,East,82,3.0,10.0,66,0.00,,SKC,0.00,VWS V14.01,2013-11-05 16:26:00,
2013-11-05 11:30:00,60.3,48.5,30.53,SE,144,6.0,10.0,65,0.00,,SKC,0.00,VWS V14.01,2013-11-05 16:30:00,
2013-11-05 11:34:00,60.1,48.3,30.53,ESE,104,4.0,11.0,65,0.00,,SKC,0.00,VWS V14.01,2013-11-05 16:34:00,
2013-11-05 11:42:00,59.9,47.3,30.53,ESE,109,0.0,9.0,63,0.00,,SKC,0.00,VWS V14.01,2013-11-05 16:42:00,
2013-11-05 11:46:00,59.7,47.1,30.53,SSW,208,1.0,9.0,63,0.00,,SKC,0.00,VWS V14.01,2013-11-05 16:46:00,
2013-11-05 11:50:00,59.4,47.2,30.53,SSE,162,5.0,9.0,64,0.00,,SKC,0.00,VWS V14.01,2013-11-05 16:50:00,
2013-11-05 11:54:00,59.0,47.7,30.52,SE,126,5.0,10.0,66,0.00,,SKC,0.00,VWS V14.01,2013-11-05 16:54:00,
2013-11-05 11:58:00,58.5,46.4,30.52,SSE,153,0.0,10.0,64,0.00,,SKC,0.00,VWS V14.01,2013-11-05 16:58:00,
2013-11-05 12:02:00,58.2,46.9,30.52,SE,126,3.0,10.0,66,0.00,,SKC,0.00,VWS V14.01,2013-11-05 17:02:00,
2013-11-05 12:06:00,58.2,47.3,30.51,East,94,1.0,10.0,67,0.00,,SKC,0.00,VWS V14.01,2013-11-05 17:06:00,
2013-11-05 12:10:00,58.2,46.9,30.52,SE,136,1.0,5.0,66,0.00,,SKC,0.00,VWS V14.01,2013-11-05 17:10:00,
2013-11-05 12:14:00,58.3,47.4,30.51,ENE,62,0.0,5.0,67,0.00,,SKC,0.00,VWS V14.01,2013-11-05 17:14:00,
2013-11-05 12:18:00,58.4,47.5,30.51,SSE,163,3.0,5.0,67,0.00,,SKC,0.00,VWS V14.01,2013-11-05 17:18:00,
2013-11-05 12:22:00,58.3,47.0,30.51,SE,144,0.0,7.0,66,0.00,,SKC,0.00,VWS V14.01,2013-11-05 17:22:00,
2013-11-05 12:30:00,58.4,47.9,30.50,ENE,73,1.0,7.0,68,0.00,,SKC,0.00,VWS V14.01,2013-11-05 17:30:00,
2013-11-05 12:34:00,58.5,47.6,30.50,East,86,0.0,7.0,67,0.00,,SKC,0.00,VWS V14.01,2013-11-05 17:34:00,
2013-11-05 12:36:00,58.6,47.3,30.51,East,96,6.0,7.0,66,0.00,,SKC,0.00,VWS V14.01,2013-11-05 17:36:00,
2013-11-05 12:38:00,58.6,47.3,30.51,East,95,1.0,6.0,66,0.00,,SKC,0.00,VWS V14.01,2013-11-05 17:38:00,
2013-11-05 12:42:00,58.8,47.9,30.51,East,94,0.0,6.0,67,0.00,,SKC,0.00,VWS V14.01,2013-11-05 17:42:00,
2013-11-05 12:46:00,58.9,48.0,30.51,ENE,76,0.0,6.0,67,0.00,,SKC,0.00,VWS V14.01,2013-11-05 17:46:00,
2013-11-05 12:50:00,59.0,47.7,30.51,East,88,3.0,6.0,66,0.00,,SKC,0.00,VWS V14.01,2013-11-05 17:50:00,
2013-11-05 13:02:00,58.7,47.8,30.50,East,95,2.0,7.0,67,0.00,,SKC,0.00,VWS V14.01,2013-11-05 18:02:00,
2013-11-05 13:06:00,58.6,47.7,30.50,ENE,61,1.0,7.0,67,0.00,,SKC,0.00,VWS V14.01,2013-11-05 18:06:00,
2013-11-05 13:14:00,58.9,47.6,30.50,SSE,148,3.0,7.0,66,0.00,,SKC,0.00,VWS V14.01,2013-11-05 18:14:00,
2013-11-05 13:18:00,58.7,47.8,30.50,East,94,0.0,7.0,67,0.00,,SKC,0.00,VWS V14.01,2013-11-05 18:18:00,
2013-11-05 13:22:00,58.7,47.8,30.50,East,86,0.0,7.0,67,0.00,,SKC,0.00,VWS V14.01,2013-11-05 18:22:00,
2013-11-05 13:26:00,58.8,47.9,30.49,East,82,0.0,7.0,67,0.00,,SKC,0.00,VWS V14.01,2013-11-05 18:26:00,
2013-11-05 13:34:00,58.5,47.6,30.49,East,90,0.0,7.0,67,0.00,,SKC,0.00,VWS V14.01,2013-11-05 18:34:00,
2013-11-05 13:42:00,58.4,47.1,30.49,ENE,65,2.0,5.0,66,0.00,,SKC,0.00,VWS V14.01,2013-11-05 18:42:00,
2013-11-05 13:46:00,58.2,46.9,30.49,ESE,102,0.0,7.0,66,0.00,,SKC,0.00,VWS V14.01,2013-11-05 18:46:00,
2013-11-05 13:50:00,58.1,47.2,30.49,East,83,0.0,8.0,67,0.00,,SKC,0.00,VWS V14.01,2013-11-05 18:50:00,
2013-11-05 13:54:00,58.2,47.3,30.50,East,88,0.0,8.0,67,0.00,,SKC,0.00,VWS V14.01,2013-11-05 18:54:00,
2013-11-05 13:58:00,58.4,47.5,30.50,ENE,59,0.0,8.0,67,0.00,,SKC,0.00,VWS V14.01,2013-11-05 18:58:00,
2013-11-05 14:02:00,58.6,47.3,30.49,ENE,78,0.0,8.0,66,0.00,,SKC,0.00,VWS V14.01,2013-11-05 19:02:00,
2013-11-05 14:06:00,58.5,47.2,30.49,ESE,111,1.0,8.0,66,0.00,,SKC,0.00,VWS V14.01,2013-11-05 19:06:00,
2013-11-05 14:10:00,58.4,47.1,30.49,East,88,2.0,9.0,66,0.00,,SKC,0.00,VWS V14.01,2013-11-05 19:10:00,
2013-11-05 14:14:00,58.3,46.6,30.49,ENE,76,4.0,9.0,65,0.00,,SKC,0.00,VWS V14.01,2013-11-05 19:14:00,
2013-11-05 14:19:00,58.2,46.9,30.49,ESE,105,2.0,9.0,66,0.00,,SKC,0.00,VWS V14.01,2013-11-05 19:19:00,
2013-11-05 14:23:00,58.3,47.0,30.49,SE,133,0.0,9.0,66,0.00,,SKC,0.00,VWS V14.01,2013-11-05 19:23:00,
2013-11-05 14:31:00,58.3,46.2,30.48,SE,137,2.0,9.0,64,0.00,,SKC,0.00,VWS V14.01,2013-11-05 19:31:00,
2013-11-05 14:35:00,58.1,46.4,30.49,SE,132,0.0,10.0,65,0.00,,SKC,0.00,VWS V14.01,2013-11-05 19:35:00,
2013-11-05 14:36:00,58.0,46.3,30.49,SE,140,0.0,10.0,65,0.00,,SKC,0.00,VWS V14.01,2013-11-05 19:36:00,
2013-11-05 14:43:00,58.0,47.1,30.48,SE,140,3.0,6.0,67,0.00,,SKC,0.00,VWS V14.01,2013-11-05 19:43:00,
2013-11-05 14:51:00,58.4,46.7,30.48,SSE,152,4.0,10.0,65,0.00,,SKC,0.00,VWS V14.01,2013-11-05 19:51:00,
2013-11-05 14:55:00,58.6,46.9,30.48,East,93,0.0,10.0,65,0.00,,SKC,0.00,VWS V14.01,2013-11-05 19:55:00,
2013-11-05 14:59:00,58.5,46.4,30.48,East,85,2.0,10.0,64,0.00,,SKC,0.00,VWS V14.01,2013-11-05 19:59:00,
2013-11-05 15:06:00,58.0,45.5,30.48,East,98,2.0,10.0,63,0.00,,SKC,0.00,VWS V14.01,2013-11-05 20:06:00,
2013-11-05 15:07:00,58.0,45.5,30.48,ESE,119,5.0,5.0,63,0.00,,SKC,0.00,VWS V14.01,2013-11-05 20:07:00,
2013-11-05 15:11:00,57.6,45.9,30.48,East,88,0.0,6.0,65,0.00,,SKC,0.00,VWS V14.01,2013-11-05 20:11:00,
2013-11-05 15:15:00,57.5,45.4,30.48,SSE,162,0.0,6.0,64,0.00,,SKC,0.00,VWS V14.01,2013-11-05 20:15:00,
2013-11-05 15:19:00,57.3,45.7,30.48,ESE,119,0.0,7.0,65,0.00,,SKC,0.00,VWS V14.01,2013-11-05 20:19:00,
2013-11-05 15:23:00,57.2,46.0,30.48,East,88,0.0,7.0,66,0.00,,SKC,0.00,VWS V14.01,2013-11-05 20:23:00,
2013-11-05 15:27:00,57.2,46.4,30.48,SE,138,3.0,7.0,67,0.00,,SKC,0.00,VWS V14.01,2013-11-05 20:27:00,
2013-11-05 15:31:00,57.1,46.3,30.48,ENE,65,1.0,7.0,67,0.00,,SKC,0.00,VWS V14.01,2013-11-05 20:31:00,
2013-11-05 15:35:00,57.0,46.6,30.48,East,100,0.0,7.0,68,0.00,,SKC,0.00,VWS V14.01,2013-11-05 20:35:00,
2013-11-05 15:36:00,57.0,46.6,30.48,East,82,1.0,7.0,68,0.00,,SKC,0.00,VWS V14.01,2013-11-05 20:36:00,
2013-11-05 15:43:00,56.9,46.5,30.48,SE,138,3.0,6.0,68,0.00,,SKC,0.00,VWS V14.01,2013-11-05 20:43:00,
2013-11-05 15:47:00,56.8,46.8,30.48,East,84,0.0,6.0,69,0.00,,SKC,0.00,VWS V14.01,2013-11-05 20:47:00,
2013-11-05 15:51:00,56.7,46.7,30.48,East,93,0.0,6.0,69,0.00,,SKC,0.00,VWS V14.01,2013-11-05 20:51:00,
2013-11-05 15:55:00,56.6,46.6,30.48,SE,134,0.0,8.0,69,0.00,,SKC,0.00,VWS V14.01,2013-11-05 20:55:00,
2013-11-05 15:59:00,56.4,46.4,30.48,ESE,115,3.0,8.0,69,0.00,,SKC,0.00,VWS V14.01,2013-11-05 20:59:00,
2013-11-05 16:03:00,56.3,46.7,30.48,ESE,108,0.0,9.0,70,0.00,,SKC,0.00,VWS V14.01,2013-11-05 21:03:00,
2013-11-05 16:07:00,56.2,46.9,30.47,SE,144,2.0,2.0,71,0.00,,SKC,0.00,VWS V14.01,2013-11-05 21:07:00,
2013-11-05 16:11:00,56.1,47.2,30.47,ESE,107,0.0,3.0,72,0.00,,SKC,0.00,VWS V14.01,2013-11-05 21:11:00,
2013-11-05 16:15:00,56.0,47.5,30.48,East,92,0.0,3.0,73,0.00,,SKC,0.00,VWS V14.01,2013-11-05 21:15:00,
2013-11-05 16:19:00,55.9,47.0,30.48,SSE,152,0.0,4.0,72,0.00,,SKC,0.00,VWS V14.01,2013-11-05 21:19:00,
2013-11-05 16:23:00,55.8,47.3,30.47,SE,143,0.0,5.0,73,0.00,,SKC,0.00,VWS V14.01,2013-11-05 21:23:00,
2013-11-05 16:27:00,55.6,47.1,30.47,SE,139,2.0,7.0,73,0.00,,SKC,0.00,VWS V14.01,2013-11-05 21:27:00,
2013-11-05 16:31:00,55.5,47.0,30.47,East,98,0.0,7.0,73,0.00,,SKC,0.00,VWS V14.01,2013-11-05 21:31:00,
2013-11-05 16:36:00,55.3,47.2,30.47,SE,141,1.0,7.0,74,0.00,,SKC,0.00,VWS V14.01,2013-11-05 21:36:00,
2013-11-05 16:39:00,55.2,47.1,30.48,ESE,113,0.0,6.0,74,0.00,,SKC,0.00,VWS V14.01,2013-11-05 21:39:00,
2013-11-05 16:43:00,55.1,47.3,30.47,SE,132,0.0,7.0,75,0.00,,SKC,0.00,VWS V14.01,2013-11-05 21:43:00,
2013-11-05 16:47:00,54.8,47.0,30.47,East,94,0.0,7.0,75,0.00,,SKC,0.00,VWS V14.01,2013-11-05 21:47:00,
2013-11-05 16:51:00,54.8,47.4,30.46,SE,132,0.0,7.0,76,0.00,,SKC,0.00,VWS V14.01,2013-11-05 21:51:00,
2013-11-05 16:55:00,54.7,47.3,30.46,ENE,78,0.0,7.0,76,0.00,,SKC,0.00,VWS V14.01,2013-11-05 21:55:00,
2013-11-05 17:03:00,54.5,47.5,30.47,SE,133,0.0,7.0,77,0.00,,SKC,0.00,VWS V14.01,2013-11-05 22:03:00,
2013-11-05 17:07:00,54.4,47.3,30.47,ESE,121,0.0,0.0,77,0.00,,SKC,0.00,VWS V14.01,2013-11-05 22:07:00,
2013-11-05 17:11:00,54.2,47.2,30.47,East,96,0.0,5.0,77,0.00,,SKC,0.00,VWS V14.01,2013-11-05 22:11:00,
2013-11-05 17:19:00,54.1,47.1,30.46,SE,138,0.0,5.0,77,0.00,,SKC,0.00,VWS V14.01,2013-11-05 22:19:00,
2013-11-05 17:27:00,53.9,47.2,30.46,East,99,0.0,5.0,78,0.00,,SKC,0.00,VWS V14.01,2013-11-05 22:27:00,
2013-11-05 17:31:00,53.8,47.1,30.46,ESE,107,2.0,5.0,78,0.00,,SKC,0.00,VWS V14.01,2013-11-05 22:31:00,
2013-11-05 17:36:00,53.7,47.3,30.47,SSE,147,0.0,5.0,79,0.00,,SKC,0.00,VWS V14.01,2013-11-05 22:36:00,
2013-11-05 17:43:00,53.5,47.2,30.47,SSE,149,0.0,3.0,79,0.00,,SKC,0.00,VWS V14.01,2013-11-05 22:43:00,
2013-11-05 20:17:00,50.5,46.8,30.47,East,84,0.0,0.0,87,0.00,,SKC,0.00,VWS V14.01,2013-11-06 01:17:00,
2013-11-05 20:21:00,50.5,46.8,30.47,East,84,0.0,0.0,87,0.00,,SKC,0.00,VWS V14.01,2013-11-06 01:21:00,
2013-11-05 20:29:00,50.4,47.0,30.47,East,84,0.0,0.0,88,0.00,,SKC,0.00,VWS V14.01,2013-11-06 01:29:00,
2013-11-05 20:33:00,50.4,48.2,30.46,East,84,0.0,0.0,92,0.00,,SKC,0.00,VWS V14.01,2013-11-06 01:33:00,
2013-11-05 20:36:00,50.3,46.9,30.46,East,84,0.0,0.0,88,0.00,,SKC,0.00,VWS V14.01,2013-11-06 01:36:00,
2013-11-05 20:41:00,50.1,46.7,30.46,East,84,0.0,0.0,88,0.00,,SKC,0.00,VWS V14.01,2013-11-06 01:41:00,
2013-11-05 20:45:00,50.0,46.9,30.46,East,84,0.0,0.0,89,0.00,,SKC,0.00,VWS V14.01,2013-11-06 01:45:00,
2013-11-05 20:53:00,49.7,46.6,30.46,East,84,0.0,0.0,89,0.00,,SKC,0.00,VWS V14.01,2013-11-06 01:53:00,
2013-11-05 20:57:00,49.6,46.8,30.47,East,84,0.0,0.0,90,0.00,,SKC,0.00,VWS V14.01,2013-11-06 01:57:00,
2013-11-05 21:01:00,49.5,46.7,30.46,East,84,0.0,0.0,90,0.00,,SKC,0.00,VWS V14.01,2013-11-06 02:01:00,
2013-11-05 21:05:00,49.4,46.9,30.46,East,84,0.0,0.0,91,0.00,,SKC,0.00,VWS V14.01,2013-11-06 02:05:00,
2013-11-05 21:09:00,49.4,46.9,30.46,East,84,0.0,0.0,91,0.00,,SKC,0.00,VWS V14.01,2013-11-06 02:09:00,
2013-11-05 21:13:00,49.3,46.8,30.46,East,84,0.0,0.0,91,0.00,,SKC,0.00,VWS V14.01,2013-11-06 02:13:00,
2013-11-05 21:21:00,49.3,46.8,30.45,East,84,0.0,0.0,91,0.00,,SKC,0.00,VWS V14.01,2013-11-06 02:21:00,
2013-11-05 21:25:00,49.2,46.7,30.46,East,84,0.0,0.0,91,0.00,,SKC,0.00,VWS V14.01,2013-11-06 02:25:00,
2013-11-05 21:29:00,49.2,46.7,30.46,East,84,0.0,0.0,91,0.00,,SKC,0.00,VWS V14.01,2013-11-06 02:29:00,
2013-11-05 21:33:00,49.0,46.5,30.45,East,84,0.0,0.0,91,0.00,,SKC,0.00,VWS V14.01,2013-11-06 02:33:00,
2013-11-05 21:36:00,49.0,46.5,30.45,East,84,0.0,0.0,91,0.00,,SKC,0.00,VWS V14.01,2013-11-06 02:36:00,
2013-11-05 21:37:00,48.9,46.4,30.45,East,84,0.0,0.0,91,0.00,,SKC,0.00,VWS V14.01,2013-11-06 02:37:00,
2013-11-05 21:45:00,48.8,46.6,30.45,East,84,0.0,0.0,92,0.00,,SKC,0.00,VWS V14.01,2013-11-06 02:45:00,
2013-11-05 21:49:00,48.8,46.6,30.45,East,84,0.0,0.0,92,0.00,,SKC,0.00,VWS V14.01,2013-11-06 02:49:00,
2013-11-05 21:53:00,48.5,46.3,30.44,East,84,0.0,0.0,92,0.00,,SKC,0.00,VWS V14.01,2013-11-06 02:53:00,
2013-11-05 21:57:00,48.4,46.2,30.45,East,84,0.0,0.0,92,0.00,,SKC,0.00,VWS V14.01,2013-11-06 02:57:00,
2013-11-05 22:01:00,48.4,46.2,30.45,East,84,0.0,0.0,92,0.00,,SKC,0.00,VWS V14.01,2013-11-06 03:01:00,
2013-11-05 22:07:00,48.4,46.2,30.44,East,84,0.0,0.0,92,0.00,,SKC,0.00,VWS V14.01,2013-11-06 03:07:00,
2013-11-05 22:09:00,48.5,46.6,30.44,East,84,0.0,0.0,93,0.00,,SKC,0.00,VWS V14.01,2013-11-06 03:09:00,
2013-11-05 22:13:00,48.6,46.7,30.44,East,84,0.0,0.0,93,0.00,,SKC,0.00,VWS V14.01,2013-11-06 03:13:00,
2013-11-05 22:17:00,48.5,46.6,30.44,East,84,0.0,0.0,93,0.00,,SKC,0.00,VWS V14.01,2013-11-06 03:17:00,
2013-11-05 22:21:00,48.6,46.7,30.43,East,84,0.0,0.0,93,0.00,,SKC,0.00,VWS V14.01,2013-11-06 03:21:00,
2013-11-05 22:25:00,48.6,46.7,30.43,East,84,0.0,0.0,93,0.00,,SKC,0.00,VWS V14.01,2013-11-06 03:25:00,
2013-11-05 22:29:00,48.6,46.7,30.43,East,84,0.0,0.0,93,0.00,,SKC,0.00,VWS V14.01,2013-11-06 03:29:00,
2013-11-05 22:33:00,48.6,46.7,30.43,East,84,0.0,0.0,93,0.00,,SKC,0.00,VWS V14.01,2013-11-06 03:33:00,
2013-11-05 22:37:00,48.5,46.3,30.42,East,84,0.0,0.0,92,0.00,,SKC,0.00,VWS V14.01,2013-11-06 03:37:00,
2013-11-05 22:41:00,48.4,46.2,30.43,East,84,0.0,0.0,92,0.00,,SKC,0.00,VWS V14.01,2013-11-06 03:41:00,
2013-11-05 22:50:00,48.3,46.1,30.43,East,84,0.0,0.0,92,0.00,,SKC,0.00,VWS V14.01,2013-11-06 03:50:00,
2013-11-05 22:58:00,48.1,46.2,30.43,East,84,0.0,0.0,93,0.00,,SKC,0.00,VWS V14.01,2013-11-06 03:58:00,
2013-11-05 23:02:00,48.0,46.1,30.43,East,84,0.0,0.0,93,0.00,,SKC,0.00,VWS V14.01,2013-11-06 04:02:00,
2013-11-05 23:06:00,47.9,46.0,30.43,East,84,0.0,0.0,93,0.00,,SKC,0.00,VWS V14.01,2013-11-06 04:06:00,
2013-11-05 23:07:00,47.9,46.0,30.43,East,84,0.0,0.0,93,0.00,,SKC,0.00,VWS V14.01,2013-11-06 04:07:00,
2013-11-05 23:10:00,47.8,45.9,30.43,East,84,0.0,0.0,93,0.00,,SKC,0.00,VWS V14.01,2013-11-06 04:10:00,
2013-11-05 23:18:00,47.4,45.5,30.43,East,84,0.0,0.0,93,0.00,,SKC,0.00,VWS V14.01,2013-11-06 04:18:00,
2013-11-05 23:22:00,47.3,45.4,30.43,East,84,0.0,0.0,93,0.00,,SKC,0.00,VWS V14.01,2013-11-06 04:22:00,
2013-11-05 23:26:00,47.2,45.3,30.43,East,84,0.0,0.0,93,0.00,,SKC,0.00,VWS V14.01,2013-11-06 04:26:00,
2013-11-05 23:30:00,47.0,45.1,30.43,East,84,0.0,0.0,93,0.00,,SKC,0.00,VWS V14.01,2013-11-06 04:30:00,
2013-11-05 23:34:00,46.9,45.0,30.43,East,84,0.0,0.0,93,0.00,,SKC,0.00,VWS V14.01,2013-11-06 04:34:00,
2013-11-05 23:37:00,46.9,45.0,30.43,East,84,0.0,0.0,93,0.00,,SKC,0.00,VWS V14.01,2013-11-06 04:37:00,
2013-11-05 23:42:00,46.8,44.9,30.43,East,84,0.0,0.0,93,0.00,,SKC,0.00,VWS V14.01,2013-11-06 04:42:00,
2013-11-05 23:46:00,46.9,45.3,30.43,East,84,0.0,0.0,94,0.00,,SKC,0.00,VWS V14.01,2013-11-06 04:46:00,
2013-11-05 23:50:00,46.9,45.3,30.43,East,84,0.0,0.0,94,0.00,,SKC,0.00,VWS V14.01,2013-11-06 04:50:00,
2013-11-05 23:58:00,46.7,45.1,30.43,East,84,0.0,0.0,94,0.00,,SKC,0.00,VWS V14.01,2013-11-06 04:58:00,